< < Back
Terminal Aerodrome Forecast


Current Version              Previous Versions:   1  2  3  4  5  6  7  8  9  

Terminal Aerodrome Forecast

904
FTUS42 KGSP 302337
TAFHKY
TAF
KHKY 302337Z 3100/3124 31006KT P6SM SKC
     FM310400 00000KT P6SM SKC
     FM311500 22010KT P6SM FEW250=



Latest METAR

561
SAUS70 KWBC 310000 RRE
MTRHKY
METAR KHKY 302353Z AUTO VRB03KT 10SM CLR 16/M03 A2998 RMK AO2 SLP143
60000 T01561028 10194 20156 53005


USA.gov is the U.S. government's official web portal to all federal, state and local government web resources and services.